Time;durP1;ratioP1;P1;durP2;ratioP2;P2;SDS_P1;SDS_P2;PMS_P1;PMS_P2;Temp;Humidity;BMP_temperature;BMP_pressure;BME280_temperature;BME280_humidity;BME280_pressure;Samples;Min_cycle;Max_cycle;Signal;HPM_P1;HPM_P2
2021/12/28 00:02:18;;;;;;;7.70;1.70;;;;;;;;;;5092494;28;20413;-74
2021/12/28 00:04:44;;;;;;;6.10;1.40;;;;;;;;;;5092586;28;20909;-73
2021/12/28 00:07:10;;;;;;;2.40;1.13;;;;;;;;;;5092524;28;20416;-74
2021/12/28 00:09:36;;;;;;;9.70;2.10;;;;;;;;;;5092895;28;20975;-73
2021/12/28 00:12:02;;;;;;;3.47;1.10;;;;;;;;;;5095535;28;20439;-75
2021/12/28 00:14:35;;;;;;;4.93;1.40;;;;;;;;;;5096497;28;20412;-74
2021/12/28 00:19:46;;;;;;;5.47;2.17;;;;;;;;;;5096243;28;20388;-74
2021/12/28 00:22:12;;;;;;;4.03;1.53;;;;;;;;;;5095972;28;20417;-74
2021/12/28 00:24:38;;;;;;;6.90;1.20;;;;;;;;;;5096183;28;20507;-73
2021/12/28 00:27:04;;;;;;;2.93;1.80;;;;;;;;;;5096149;28;20408;-73
2021/12/28 00:32:34;;;;;;;4.40;0.90;;;;;;;;;;5095808;28;20442;-73
2021/12/28 00:35:00;;;;;;;2.83;1.23;;;;;;;;;;5095770;28;20507;-73
2021/12/28 00:37:26;;;;;;;2.63;1.20;;;;;;;;;;5095635;28;20428;-73
2021/12/28 00:39:52;;;;;;;3.30;0.80;;;;;;;;;;5095683;28;20408;-73
2021/12/28 00:42:18;;;;;;;7.00;1.20;;;;;;;;;;5095753;28;20417;-73
2021/12/28 00:44:44;;;;;;;8.30;1.20;;;;;;;;;;5095764;28;20408;-73
2021/12/28 00:47:09;;;;;;;2.23;2.03;;;;;;;;;;5095541;28;20977;-73
2021/12/28 00:52:39;;;;;;;1.63;1.00;;;;;;;;;;5095460;28;20395;-73
2021/12/28 00:55:05;;;;;;;5.43;1.03;;;;;;;;;;5095178;28;20469;-73
2021/12/28 00:57:32;;;;;;;1.90;0.90;;;;;;;;;;5095279;28;20499;-74
2021/12/28 00:59:58;;;;;;;3.27;1.30;;;;;;;;;;5095310;28;20405;-74
2021/12/28 01:02:24;;;;;;;2.70;0.97;;;;;;;;;;5095395;28;20409;-74
2021/12/28 01:04:50;;;;;;;1.33;0.73;;;;;;;;;;5095152;28;20406;-73
2021/12/28 01:07:16;;;;;;;3.60;1.03;;;;;;;;;;5095024;28;20413;-74
2021/12/28 01:09:43;;;;;;;4.77;1.40;;;;;;;;;;5094974;28;20894;-73
2021/12/28 01:12:09;;;;;;;3.03;1.00;;;;;;;;;;5095248;28;20404;-73
2021/12/28 01:14:35;;;;;;;7.30;0.90;;;;;;;;;;5095494;28;20452;-73
2021/12/28 01:17:01;;;;;;;3.13;0.60;;;;;;;;;;5094934;28;20408;-73
2021/12/28 01:19:28;;;;;;;9.23;1.60;;;;;;;;;;5095070;28;20958;-73
2021/12/28 01:21:54;;;;;;;0.87;0.50;;;;;;;;;;5095126;28;20412;-74
2021/12/28 01:24:20;;;;;;;0.40;0.40;;;;;;;;;;5094742;28;20427;-74
2021/12/28 01:26:46;;;;;;;1.17;0.60;;;;;;;;;;5094747;28;20910;-73
2021/12/28 01:29:13;;;;;;;1.27;0.70;;;;;;;;;;5094807;28;20468;-73
2021/12/28 01:31:39;;;;;;;3.13;0.90;;;;;;;;;;5094541;28;20424;-73
2021/12/28 01:34:06;;;;;;;2.23;0.63;;;;;;;;;;5095046;28;20417;-74
2021/12/28 01:36:32;;;;;;;1.57;0.50;;;;;;;;;;5095586;28;20806;-73
2021/12/28 01:38:58;;;;;;;2.93;0.60;;;;;;;;;;5094756;28;20956;-73
2021/12/28 01:41:24;;;;;;;0.50;0.50;;;;;;;;;;5094417;28;20424;-73
2021/12/28 01:44:00;;;;;;;0.60;0.60;;;;;;;;;;5094535;28;20416;-73
2021/12/28 01:46:26;;;;;;;0.97;0.50;;;;;;;;;;5094360;28;20424;-75
2021/12/28 01:48:52;;;;;;;0.63;0.63;;;;;;;;;;5094081;28;20955;-73
2021/12/28 01:51:21;;;;;;;1.90;0.73;;;;;;;;;;5094230;28;20454;-73
2021/12/28 01:53:48;;;;;;;1.27;0.50;;;;;;;;;;5094155;28;20520;-73
2021/12/28 01:56:36;;;;;;;1.43;0.43;;;;;;;;;;5094420;28;20428;-74
2021/12/28 01:59:04;;;;;;;0.40;0.40;;;;;;;;;;5094673;28;20446;-74
2021/12/28 02:01:30;;;;;;;0.47;0.47;;;;;;;;;;5109789;28;20532;-73
2021/12/28 02:03:56;;;;;;;0.80;0.73;;;;;;;;;;5094170;28;20478;-73
2021/12/28 02:06:25;;;;;;;0.73;0.30;;;;;;;;;;5094461;28;20508;-73
2021/12/28 02:11:54;;;;;;;1.17;0.30;;;;;;;;;;5093977;28;20394;-74
2021/12/28 02:14:21;;;;;;;1.70;0.50;;;;;;;;;;5094148;28;20484;-73
2021/12/28 02:16:47;;;;;;;1.87;0.60;;;;;;;;;;5093849;28;20408;-74
2021/12/28 02:19:14;;;;;;;0.53;0.53;;;;;;;;;;5093869;28;20757;-74
2021/12/28 02:21:40;;;;;;;6.03;0.93;;;;;;;;;;5093779;28;20408;-73
2021/12/28 02:24:07;;;;;;;3.17;0.67;;;;;;;;;;5093714;28;20472;-73
2021/12/28 02:26:33;;;;;;;2.00;0.63;;;;;;;;;;5093571;28;20485;-74
2021/12/28 02:28:59;;;;;;;1.40;0.50;;;;;;;;;;5093537;28;20569;-73
2021/12/28 02:31:26;;;;;;;0.50;0.40;;;;;;;;;;5093778;28;20408;-73
2021/12/28 02:33:52;;;;;;;0.40;0.40;;;;;;;;;;5093162;28;20424;-73
2021/12/28 02:36:19;;;;;;;0.50;0.30;;;;;;;;;;5093718;28;20819;-73
2021/12/28 02:38:46;;;;;;;0.50;0.50;;;;;;;;;;5093471;28;20424;-73
2021/12/28 02:41:13;;;;;;;8.43;0.70;;;;;;;;;;5093382;28;20770;-73
2021/12/28 02:43:40;;;;;;;1.17;0.50;;;;;;;;;;5093686;28;20515;-73
2021/12/28 02:46:07;;;;;;;0.33;0.33;;;;;;;;;;5093275;28;20940;-74
2021/12/28 02:48:34;;;;;;;7.90;0.50;;;;;;;;;;5093145;28;20870;-73
2021/12/28 02:51:02;;;;;;;0.97;0.67;;;;;;;;;;5093542;28;20448;-73
2021/12/28 02:53:28;;;;;;;0.90;0.50;;;;;;;;;;5093049;28;20436;-73
2021/12/28 02:55:55;;;;;;;2.27;0.30;;;;;;;;;;5093250;28;20466;-74
2021/12/28 02:58:33;;;;;;;1.50;0.50;;;;;;;;;;5093416;28;20420;-73
2021/12/28 03:01:13;;;;;;;1.80;0.90;;;;;;;;;;5108894;28;20423;-73
2021/12/28 03:03:39;;;;;;;3.13;0.53;;;;;;;;;;5093071;28;20908;-73
2021/12/28 03:06:06;;;;;;;4.03;0.60;;;;;;;;;;5093092;28;20841;-73
2021/12/28 03:08:33;;;;;;;1.47;0.50;;;;;;;;;;5093275;28;20464;-73
2021/12/28 03:11:01;;;;;;;2.67;0.50;;;;;;;;;;5093312;28;20456;-73
2021/12/28 03:13:50;;;;;;;1.50;0.77;;;;;;;;;;5093124;28;20404;-74
2021/12/28 03:16:17;;;;;;;0.33;0.33;;;;;;;;;;5085397;28;20944;-74
2021/12/28 03:21:46;;;;;;;0.87;0.30;;;;;;;;;;5093160;28;20426;-73
2021/12/28 03:24:12;;;;;;;0.93;0.40;;;;;;;;;;5092938;28;20801;-73
2021/12/28 03:26:39;;;;;;;0.87;0.63;;;;;;;;;;5093264;28;20458;-73
2021/12/28 03:29:05;;;;;;;1.30;0.57;;;;;;;;;;5092709;28;20519;-74
2021/12/28 03:31:31;;;;;;;0.43;0.43;;;;;;;;;;5092930;28;20458;-73
2021/12/28 03:33:57;;;;;;;0.63;0.37;;;;;;;;;;5092856;28;20421;-73
2021/12/28 03:36:24;;;;;;;0.73;0.70;;;;;;;;;;5092858;28;20486;-73
2021/12/28 03:38:51;;;;;;;2.17;0.80;;;;;;;;;;5093011;28;20416;-73
2021/12/28 03:41:18;;;;;;;1.27;0.63;;;;;;;;;;5092813;28;20412;-74
2021/12/28 03:43:46;;;;;;;2.60;0.90;;;;;;;;;;5092812;28;20431;-73
2021/12/28 03:46:12;;;;;;;0.70;0.50;;;;;;;;;;5096887;28;20416;-73
2021/12/28 03:48:38;;;;;;;0.50;0.50;;;;;;;;;;5096820;28;20954;-73
2021/12/28 03:51:06;;;;;;;2.93;0.50;;;;;;;;;;5096703;28;20424;-74
2021/12/28 03:53:33;;;;;;;1.00;0.40;;;;;;;;;;5096680;28;20451;-73
2021/12/28 03:55:59;;;;;;;0.60;0.50;;;;;;;;;;5112315;28;20486;-73
2021/12/28 03:58:25;;;;;;;0.43;0.43;;;;;;;;;;5096655;28;20428;-74
2021/12/28 04:00:51;;;;;;;0.40;0.40;;;;;;;;;;5096390;28;20436;-73
2021/12/28 04:03:17;;;;;;;2.00;0.50;;;;;;;;;;5096471;28;20417;-73
2021/12/28 04:05:44;;;;;;;1.97;0.60;;;;;;;;;;5096840;28;20412;-73
2021/12/28 04:08:11;;;;;;;0.50;0.50;;;;;;;;;;5096139;28;20412;-73
2021/12/28 04:10:53;;;;;;;1.13;0.70;;;;;;;;;;5096107;28;20481;-73
2021/12/28 04:13:19;;;;;;;0.30;0.30;;;;;;;;;;5096548;28;20415;-73
2021/12/28 04:15:45;;;;;;;0.97;0.97;;;;;;;;;;5096344;28;20436;-73
2021/12/28 04:18:11;;;;;;;0.87;0.40;;;;;;;;;;5096040;28;20460;-73
2021/12/28 04:20:37;;;;;;;2.70;0.50;;;;;;;;;;5096065;28;20404;-73
2021/12/28 04:23:03;;;;;;;0.40;0.40;;;;;;;;;;5096238;28;20793;-74
2021/12/28 04:25:31;;;;;;;0.40;0.40;;;;;;;;;;5096235;28;20491;-74
2021/12/28 04:27:57;;;;;;;0.63;0.40;;;;;;;;;;5095977;28;20409;-73
2021/12/28 04:30:23;;;;;;;0.57;0.57;;;;;;;;;;5095757;28;20471;-73
2021/12/28 04:32:49;;;;;;;1.17;1.03;;;;;;;;;;5095913;28;20804;-73
2021/12/28 04:35:16;;;;;;;1.17;0.40;;;;;;;;;;5096034;28;20481;-73
2021/12/28 04:37:42;;;;;;;0.30;0.30;;;;;;;;;;5095761;28;20419;-73
2021/12/28 04:40:09;;;;;;;1.03;0.70;;;;;;;;;;5095974;28;20439;-73
2021/12/28 04:42:35;;;;;;;0.50;0.50;;;;;;;;;;5095659;28;20409;-73
2021/12/28 04:45:01;;;;;;;4.40;0.60;;;;;;;;;;5095793;28;20417;-73
2021/12/28 04:47:27;;;;;;;0.40;0.40;;;;;;;;;;5095334;28;20896;-74
2021/12/28 04:49:53;;;;;;;1.63;0.43;;;;;;;;;;5095543;28;20517;-73
2021/12/28 04:52:19;;;;;;;0.50;0.50;;;;;;;;;;5095546;28;20413;-73
2021/12/28 04:54:45;;;;;;;0.87;0.40;;;;;;;;;;5095691;28;20999;-74
2021/12/28 04:57:11;;;;;;;0.43;0.43;;;;;;;;;;5095274;28;20915;-73
2021/12/28 04:59:37;;;;;;;0.40;0.40;;;;;;;;;;5095425;28;20416;-73
2021/12/28 05:02:03;;;;;;;0.50;0.50;;;;;;;;;;5095223;28;20417;-73
2021/12/28 05:04:29;;;;;;;0.43;0.30;;;;;;;;;;5095204;28;20417;-73
2021/12/28 05:06:56;;;;;;;0.47;0.30;;;;;;;;;;5095005;28;20424;-73
2021/12/28 05:09:22;;;;;;;0.40;0.40;;;;;;;;;;5095079;28;20476;-73
2021/12/28 05:11:48;;;;;;;0.67;0.50;;;;;;;;;;5094990;28;20409;-73
2021/12/28 05:14:17;;;;;;;0.20;0.20;;;;;;;;;;5095206;28;20424;-73
2021/12/28 05:16:43;;;;;;;0.30;0.30;;;;;;;;;;5094870;28;20421;-73
2021/12/28 05:19:09;;;;;;;0.30;0.30;;;;;;;;;;5095050;28;20482;-73
2021/12/28 05:21:36;;;;;;;0.30;0.30;;;;;;;;;;5094908;28;20503;-73
2021/12/28 05:24:02;;;;;;;0.27;0.27;;;;;;;;;;5095155;28;20846;-73
2021/12/28 05:26:28;;;;;;;0.30;0.30;;;;;;;;;;5094801;28;20412;-73
2021/12/28 05:28:55;;;;;;;0.30;0.30;;;;;;;;;;5094587;28;20452;-73
2021/12/28 05:31:21;;;;;;;0.30;0.30;;;;;;;;;;5095005;28;20888;-73
2021/12/28 05:33:47;;;;;;;0.27;0.27;;;;;;;;;;5094593;28;20397;-73
2021/12/28 05:36:13;;;;;;;0.27;0.27;;;;;;;;;;5094761;28;20507;-73
2021/12/28 05:38:39;;;;;;;0.40;0.40;;;;;;;;;;5094581;28;20416;-73
2021/12/28 05:41:06;;;;;;;0.30;0.30;;;;;;;;;;5094440;28;20499;-73
2021/12/28 05:43:32;;;;;;;0.30;0.30;;;;;;;;;;5094763;28;20409;-73
2021/12/28 05:45:58;;;;;;;0.20;0.20;;;;;;;;;;5094886;28;20489;-73
2021/12/28 05:48:24;;;;;;;0.20;0.20;;;;;;;;;;5094475;28;20482;-73
2021/12/28 05:50:51;;;;;;;0.30;0.30;;;;;;;;;;5094313;28;20923;-73
2021/12/28 05:53:17;;;;;;;0.30;0.30;;;;;;;;;;5094361;28;20941;-73
2021/12/28 05:55:44;;;;;;;0.30;0.30;;;;;;;;;;5094616;28;20405;-73
2021/12/28 05:58:10;;;;;;;0.30;0.30;;;;;;;;;;5094383;28;20889;-73
2021/12/28 06:00:36;;;;;;;1.10;0.27;;;;;;;;;;5094143;28;20463;-73
2021/12/28 06:03:02;;;;;;;0.40;0.40;;;;;;;;;;5094582;28;20896;-73
2021/12/28 06:05:28;;;;;;;0.67;0.40;;;;;;;;;;5109755;28;20447;-74
2021/12/28 06:07:54;;;;;;;0.30;0.30;;;;;;;;;;5093164;28;20439;-74
2021/12/28 06:10:20;;;;;;;0.30;0.30;;;;;;;;;;5093922;28;21027;-73
2021/12/28 06:12:46;;;;;;;0.27;0.27;;;;;;;;;;5093864;28;20420;-73
2021/12/28 06:15:12;;;;;;;0.40;0.40;;;;;;;;;;5093881;28;20469;-74
2021/12/28 06:17:38;;;;;;;0.77;0.77;;;;;;;;;;5109443;28;20791;-74
2021/12/28 06:20:06;;;;;;;4.97;1.70;;;;;;;;;;5094086;28;20462;-74
2021/12/28 06:22:32;;;;;;;2.20;1.10;;;;;;;;;;5093706;28;20415;-73
2021/12/28 06:24:58;;;;;;;0.83;0.83;;;;;;;;;;5093638;28;20448;-73
2021/12/28 06:27:24;;;;;;;7.83;1.00;;;;;;;;;;5093581;28;20412;-73
2021/12/28 06:29:50;;;;;;;0.93;0.93;;;;;;;;;;5093627;28;20984;-73
2021/12/28 06:32:16;;;;;;;5.03;0.33;;;;;;;;;;5094577;28;20413;-74
2021/12/28 06:34:42;;;;;;;0.30;0.30;;;;;;;;;;5093478;28;20409;-73
2021/12/28 06:37:08;;;;;;;0.50;0.50;;;;;;;;;;5093430;28;20488;-74
2021/12/28 06:42:37;;;;;;;0.30;0.30;;;;;;;;;;5093504;28;20488;-73
2021/12/28 06:45:04;;;;;;;0.30;0.30;;;;;;;;;;5093899;28;20409;-73
2021/12/28 06:47:30;;;;;;;0.30;0.30;;;;;;;;;;5093270;28;20412;-73
2021/12/28 06:49:56;;;;;;;0.37;0.37;;;;;;;;;;5093828;28;20472;-74
2021/12/28 06:52:22;;;;;;;0.30;0.30;;;;;;;;;;5093342;28;20507;-73
2021/12/28 06:54:48;;;;;;;0.30;0.30;;;;;;;;;;5093094;28;20484;-73
2021/12/28 06:57:14;;;;;;;0.30;0.30;;;;;;;;;;5093092;28;20498;-72
2021/12/28 06:59:45;;;;;;;0.30;0.30;;;;;;;;;;5093052;28;20412;-72
2021/12/28 07:02:12;;;;;;;0.27;0.27;;;;;;;;;;5092939;28;20405;-73
2021/12/28 07:04:38;;;;;;;0.30;0.30;;;;;;;;;;5093009;28;20821;-72
2021/12/28 07:07:04;;;;;;;0.40;0.40;;;;;;;;;;5093163;28;20435;-73
2021/12/28 07:09:31;;;;;;;0.30;0.30;;;;;;;;;;5093180;28;20560;-73
2021/12/28 07:11:57;;;;;;;0.30;0.30;;;;;;;;;;5108603;28;20413;-73
2021/12/28 07:14:23;;;;;;;0.87;0.30;;;;;;;;;;5108728;28;20847;-73
2021/12/28 07:16:48;;;;;;;0.63;0.30;;;;;;;;;;5092902;28;20507;-73
2021/12/28 07:19:14;;;;;;;0.30;0.30;;;;;;;;;;5093574;28;20421;-73
2021/12/28 07:21:41;;;;;;;0.30;0.30;;;;;;;;;;5097171;28;20984;-72
2021/12/28 07:24:08;;;;;;;0.30;0.30;;;;;;;;;;5097156;28;20427;-73
2021/12/28 07:26:35;;;;;;;9.43;0.57;;;;;;;;;;5097047;28;20900;-72
2021/12/28 07:29:01;;;;;;;0.30;0.30;;;;;;;;;;5096645;28;20955;-73
2021/12/28 07:31:27;;;;;;;0.30;0.30;;;;;;;;;;5096981;28;20468;-72
2021/12/28 07:33:54;;;;;;;0.47;0.30;;;;;;;;;;5096590;28;20412;-74
2021/12/28 07:36:20;;;;;;;0.33;0.30;;;;;;;;;;5096480;28;20417;-73
2021/12/28 07:38:46;;;;;;;0.20;0.20;;;;;;;;;;5097054;28;20415;-73
2021/12/28 07:41:12;;;;;;;0.20;0.20;;;;;;;;;;5096748;28;20904;-73
2021/12/28 07:43:38;;;;;;;0.30;0.30;;;;;;;;;;5096695;28;20915;-74
2021/12/28 07:46:04;;;;;;;1.27;0.43;;;;;;;;;;5096709;28;20444;-73
2021/12/28 07:48:30;;;;;;;0.30;0.30;;;;;;;;;;5096492;28;20452;-73
2021/12/28 07:50:56;;;;;;;0.30;0.30;;;;;;;;;;5097441;28;20481;-73
2021/12/28 07:53:22;;;;;;;0.30;0.30;;;;;;;;;;5096883;28;20408;-74
2021/12/28 07:55:48;;;;;;;0.30;0.30;;;;;;;;;;5096664;28;20419;-76
2021/12/28 07:58:14;;;;;;;0.40;0.30;;;;;;;;;;5096306;28;20413;-73
2021/12/28 08:00:41;;;;;;;0.93;0.20;;;;;;;;;;5096105;28;20445;-74
2021/12/28 08:03:07;;;;;;;0.30;0.30;;;;;;;;;;5097133;28;20421;-73
2021/12/28 08:05:34;;;;;;;0.20;0.20;;;;;;;;;;5096057;28;20417;-73
2021/12/28 08:08:00;;;;;;;0.20;0.20;;;;;;;;;;5096051;28;20409;-72
2021/12/28 08:10:26;;;;;;;0.20;0.20;;;;;;;;;;5096212;28;20487;-75
2021/12/28 08:12:54;;;;;;;0.83;0.70;;;;;;;;;;5111879;28;20420;-72
2021/12/28 08:15:20;;;;;;;0.40;0.40;;;;;;;;;;5096005;28;20786;-70
2021/12/28 08:17:46;;;;;;;0.30;0.30;;;;;;;;;;5095961;28;20785;-73
2021/12/28 08:20:12;;;;;;;0.30;0.30;;;;;;;;;;5095858;28;20503;-72
2021/12/28 08:22:39;;;;;;;0.30;0.30;;;;;;;;;;5096019;28;20419;-73
2021/12/28 08:25:06;;;;;;;0.30;0.30;;;;;;;;;;5096242;28;20452;-73
2021/12/28 08:27:32;;;;;;;0.40;0.30;;;;;;;;;;5096448;28;20434;-72
2021/12/28 08:29:58;;;;;;;0.30;0.30;;;;;;;;;;5095570;28;20784;-72
2021/12/28 08:32:24;;;;;;;0.20;0.20;;;;;;;;;;5094968;28;20413;-72
2021/12/28 08:34:50;;;;;;;0.30;0.30;;;;;;;;;;5095827;28;20430;-73
2021/12/28 08:37:16;;;;;;;0.30;0.30;;;;;;;;;;5095617;28;20452;-73
2021/12/28 08:39:42;;;;;;;0.30;0.30;;;;;;;;;;5095805;28;20424;-79
2021/12/28 08:42:09;;;;;;;0.30;0.30;;;;;;;;;;5095476;28;20542;-70
2021/12/28 08:44:35;;;;;;;0.30;0.30;;;;;;;;;;5095697;28;20499;-74
2021/12/28 08:47:01;;;;;;;0.70;0.30;;;;;;;;;;5095555;28;20441;-71
2021/12/28 08:49:27;;;;;;;0.40;0.40;;;;;;;;;;5095190;28;20475;-72
2021/12/28 08:51:54;;;;;;;0.30;0.30;;;;;;;;;;5095351;28;20408;-73
2021/12/28 08:54:20;;;;;;;1.23;0.40;;;;;;;;;;5095119;28;20523;-71
2021/12/28 08:56:47;;;;;;;0.30;0.30;;;;;;;;;;5095242;28;20527;-73
2021/12/28 08:59:13;;;;;;;0.30;0.30;;;;;;;;;;5095772;28;20516;-72
2021/12/28 09:01:39;;;;;;;0.30;0.30;;;;;;;;;;5095514;28;20881;-70
2021/12/28 09:04:05;;;;;;;0.30;0.30;;;;;;;;;;5095293;28;20421;-73
2021/12/28 09:06:31;;;;;;;0.30;0.30;;;;;;;;;;5095434;28;20430;-71
2021/12/28 09:08:57;;;;;;;0.30;0.30;;;;;;;;;;5094875;28;20456;-73
2021/12/28 09:11:24;;;;;;;0.30;0.30;;;;;;;;;;5094979;28;20425;-71
2021/12/28 09:13:50;;;;;;;0.30;0.30;;;;;;;;;;5095516;28;20775;-72
2021/12/28 09:16:16;;;;;;;0.77;0.30;;;;;;;;;;5095291;28;20427;-72
2021/12/28 09:18:42;;;;;;;0.30;0.30;;;;;;;;;;5095091;28;20405;-72
2021/12/28 09:21:09;;;;;;;0.30;0.30;;;;;;;;;;5095094;28;20429;-72
2021/12/28 09:23:35;;;;;;;0.30;0.30;;;;;;;;;;5094634;28;20431;-72
2021/12/28 09:26:01;;;;;;;0.30;0.30;;;;;;;;;;5095027;28;20502;-72
2021/12/28 09:28:27;;;;;;;1.27;0.70;;;;;;;;;;5094731;28;20437;-71
2021/12/28 09:30:53;;;;;;;0.20;0.20;;;;;;;;;;5110349;28;20436;-72
2021/12/28 09:33:19;;;;;;;0.30;0.30;;;;;;;;;;5094751;28;20416;-72
2021/12/28 09:35:45;;;;;;;0.30;0.30;;;;;;;;;;5110185;28;20428;-72
2021/12/28 09:38:11;;;;;;;0.30;0.30;;;;;;;;;;5094288;28;20419;-72
2021/12/28 09:40:37;;;;;;;0.30;0.30;;;;;;;;;;5094456;28;20440;-72
2021/12/28 09:43:05;;;;;;;2.87;0.47;;;;;;;;;;5094411;28;20417;-72
2021/12/28 09:45:31;;;;;;;0.30;0.30;;;;;;;;;;5094355;28;20448;-71
2021/12/28 09:47:57;;;;;;;0.60;0.37;;;;;;;;;;5094252;28;20519;-72
2021/12/28 09:50:24;;;;;;;0.43;0.43;;;;;;;;;;5094173;28;20496;-71
2021/12/28 09:52:50;;;;;;;1.07;0.50;;;;;;;;;;5109805;28;20416;-72
2021/12/28 09:55:18;;;;;;;0.33;0.33;;;;;;;;;;5093906;28;20482;-71
2021/12/28 09:57:45;;;;;;;0.53;0.30;;;;;;;;;;5093917;28;20413;-71
2021/12/28 10:00:12;;;;;;;0.37;0.37;;;;;;;;;;5094063;28;20416;-71
2021/12/28 10:02:38;;;;;;;0.30;0.30;;;;;;;;;;5093738;28;20774;-72
2021/12/28 10:05:07;;;;;;;0.30;0.30;;;;;;;;;;5094224;28;20428;-72
2021/12/28 10:07:35;;;;;;;0.50;0.50;;;;;;;;;;5094275;28;20438;-72
2021/12/28 10:10:04;;;;;;;0.40;0.40;;;;;;;;;;5093755;28;20463;-74
2021/12/28 10:12:34;;;;;;;3.27;0.40;;;;;;;;;;5093850;28;20420;-72
2021/12/28 10:15:02;;;;;;;0.33;0.30;;;;;;;;;;5093826;28;20892;-70
2021/12/28 10:17:29;;;;;;;0.33;0.33;;;;;;;;;;5093692;28;20409;-72
2021/12/28 10:19:56;;;;;;;0.40;0.40;;;;;;;;;;5094120;28;20417;-72
2021/12/28 10:22:23;;;;;;;0.40;0.40;;;;;;;;;;5093550;28;20948;-75
2021/12/28 10:24:54;;;;;;;0.40;0.40;;;;;;;;;;5093565;28;20409;-72
2021/12/28 10:27:21;;;;;;;0.33;0.33;;;;;;;;;;5093485;28;20417;-71
2021/12/28 10:29:47;;;;;;;0.50;0.50;;;;;;;;;;5093661;28;20508;-70
2021/12/28 10:32:31;;;;;;;0.30;0.30;;;;;;;;;;5092925;28;20951;-71
2021/12/28 10:34:59;;;;;;;0.40;0.40;;;;;;;;;;5093451;28;20913;-71
2021/12/28 10:37:27;;;;;;;0.40;0.40;;;;;;;;;;5093531;28;20408;-71
2021/12/28 10:39:58;;;;;;;0.20;0.20;;;;;;;;;;5093796;28;20893;-72
2021/12/28 10:42:37;;;;;;;0.53;0.53;;;;;;;;;;5093420;28;20423;-72
2021/12/28 10:45:03;;;;;;;0.30;0.30;;;;;;;;;;5093290;28;20417;-71
2021/12/28 10:47:29;;;;;;;0.30;0.30;;;;;;;;;;5093179;28;20889;-72
2021/12/28 10:49:56;;;;;;;0.37;0.37;;;;;;;;;;5093458;28;20468;-73
2021/12/28 10:52:27;;;;;;;0.80;0.80;;;;;;;;;;5093099;28;20412;-71
2021/12/28 10:55:13;;;;;;;1.07;0.60;;;;;;;;;;5092481;28;20475;-71
2021/12/28 10:57:41;;;;;;;0.50;0.50;;;;;;;;;;5082373;28;20417;-72
2021/12/28 11:00:26;;;;;;;0.40;0.40;;;;;;;;;;5092957;28;20958;-72
2021/12/28 11:02:53;;;;;;;0.40;0.40;;;;;;;;;;5108322;28;20761;-72
2021/12/28 11:05:30;;;;;;;2.13;0.60;;;;;;;;;;5092781;28;20448;-72
2021/12/28 11:08:16;;;;;;;1.70;0.30;;;;;;;;;;5092696;28;20396;-72
2021/12/28 11:10:44;;;;;;;1.90;1.90;;;;;;;;;;5091329;28;20959;-71
2021/12/28 11:13:14;;;;;;;0.60;0.60;;;;;;;;;;5092583;28;20417;-72
2021/12/28 11:15:45;;;;;;;1.43;1.43;;;;;;;;;;5108484;28;20421;-72
2021/12/28 11:18:18;;;;;;;2.70;2.60;;;;;;;;;;5092987;28;20397;-72
2021/12/28 11:20:45;;;;;;;18.73;12.37;;;;;;;;;;5092902;28;20534;-72
2021/12/28 11:23:12;;;;;;;37.37;19.40;;;;;;;;;;5092712;28;20507;-72
2021/12/28 11:25:41;;;;;;;11.80;8.10;;;;;;;;;;5093313;28;20434;-72
2021/12/28 11:28:18;;;;;;;12.10;10.10;;;;;;;;;;5093427;28;20413;-72
2021/12/28 11:31:10;;;;;;;32.30;21.93;;;;;;;;;;5108162;28;20460;-72
2021/12/28 11:33:45;;;;;;;4.40;3.40;;;;;;;;;;5087711;28;20424;-72
2021/12/28 11:36:12;;;;;;;2.83;2.70;;;;;;;;;;5092546;28;20500;-76
2021/12/28 11:38:38;;;;;;;2.10;2.10;;;;;;;;;;5092714;28;20770;-72
2021/12/28 11:41:04;;;;;;;2.00;1.93;;;;;;;;;;5092624;28;20849;-72
2021/12/28 11:43:31;;;;;;;0.70;0.70;;;;;;;;;;5092980;28;20773;-72
2021/12/28 11:45:56;;;;;;;2.13;0.70;;;;;;;;;;5092753;28;20491;-72
2021/12/28 11:48:23;;;;;;;0.70;0.70;;;;;;;;;;5092528;28;20479;-71
2021/12/28 11:50:49;;;;;;;2.10;2.10;;;;;;;;;;5092591;28;20517;-71
2021/12/28 11:53:15;;;;;;;11.97;9.10;;;;;;;;;;5092465;28;20757;-72
2021/12/28 11:55:43;;;;;;;10.53;7.90;;;;;;;;;;5092532;28;20535;-72
2021/12/28 11:58:12;;;;;;;9.90;6.47;;;;;;;;;;5092492;28;20405;-73
2021/12/28 12:00:39;;;;;;;7.43;6.83;;;;;;;;;;5092772;28;20428;-72
2021/12/28 12:03:06;;;;;;;3.20;3.03;;;;;;;;;;5092120;28;20781;-71
2021/12/28 12:05:33;;;;;;;2.30;2.20;;;;;;;;;;5092469;28;20415;-72
2021/12/28 12:08:10;;;;;;;1.53;1.53;;;;;;;;;;5095390;28;20444;-72
2021/12/28 12:10:37;;;;;;;2.57;2.47;;;;;;;;;;5095848;28;20478;-72
2021/12/28 12:13:23;;;;;;;2.90;2.80;;;;;;;;;;5096421;28;20417;-72
2021/12/28 12:15:55;;;;;;;2.57;2.43;;;;;;;;;;5095881;28;20412;-71
2021/12/28 12:18:29;;;;;;;2.00;2.00;;;;;;;;;;5096022;28;20507;-72
2021/12/28 12:20:57;;;;;;;1.90;1.90;;;;;;;;;;5096114;28;20424;-71
2021/12/28 12:23:25;;;;;;;2.10;1.80;;;;;;;;;;5096204;28;20792;-74
2021/12/28 12:25:56;;;;;;;0.70;0.70;;;;;;;;;;5096143;28;20413;-71
2021/12/28 12:28:34;;;;;;;0.50;0.50;;;;;;;;;;5095849;28;20421;-71
2021/12/28 12:31:01;;;;;;;1.80;0.80;;;;;;;;;;5095981;28;20420;-72
2021/12/28 12:33:54;;;;;;;1.10;1.10;;;;;;;;;;5095755;28;20431;-72
2021/12/28 12:36:55;;;;;;;1.20;1.20;;;;;;;;;;5092768;28;20996;-71
2021/12/28 12:39:23;;;;;;;0.50;0.50;;;;;;;;;;5033658;28;20506;-72
2021/12/28 12:41:52;;;;;;;0.50;0.50;;;;;;;;;;5084175;28;20881;-72
2021/12/28 12:44:22;;;;;;;0.63;0.63;;;;;;;;;;5095527;28;20420;-72
2021/12/28 12:46:51;;;;;;;0.80;0.80;;;;;;;;;;5095154;28;20964;-72
2021/12/28 12:52:21;;;;;;;0.30;0.30;;;;;;;;;;5095371;28;20763;-72
2021/12/28 12:54:48;;;;;;;0.93;0.93;;;;;;;;;;5094945;28;20997;-72
2021/12/28 12:57:28;;;;;;;0.50;0.50;;;;;;;;;;5096079;28;20412;-73
2021/12/28 13:00:09;;;;;;;1.40;1.40;;;;;;;;;;5095507;28;20490;-72
2021/12/28 13:02:37;;;;;;;0.60;0.60;;;;;;;;;;5095167;28;20400;-73
2021/12/28 13:05:15;;;;;;;0.50;0.50;;;;;;;;;;5095014;28;20400;-72
2021/12/28 13:07:42;;;;;;;0.57;0.57;;;;;;;;;;5094885;28;20416;-72
2021/12/28 13:10:11;;;;;;;0.53;0.53;;;;;;;;;;5094711;28;20895;-74
2021/12/28 13:12:37;;;;;;;1.17;0.73;;;;;;;;;;5095268;28;20441;-73
2021/12/28 13:15:07;;;;;;;0.40;0.40;;;;;;;;;;5094832;28;20929;-72
2021/12/28 13:17:35;;;;;;;0.70;0.70;;;;;;;;;;5094369;28;20897;-72
2021/12/28 13:20:06;;;;;;;0.40;0.40;;;;;;;;;;5095008;28;20474;-71
2021/12/28 13:22:33;;;;;;;0.40;0.40;;;;;;;;;;5094825;28;20429;-72
2021/12/28 13:24:59;;;;;;;0.40;0.40;;;;;;;;;;5110303;28;20431;-72
2021/12/28 13:27:27;;;;;;;0.63;0.40;;;;;;;;;;5094601;28;20478;-72
2021/12/28 13:29:53;;;;;;;1.07;0.67;;;;;;;;;;5094467;28;21058;-72
2021/12/28 13:32:19;;;;;;;0.37;0.37;;;;;;;;;;5094513;28;20413;-71
2021/12/28 13:35:00;;;;;;;0.40;0.40;;;;;;;;;;5094717;28;20424;-72
2021/12/28 13:37:32;;;;;;;2.00;2.00;;;;;;;;;;5094774;28;20503;-72
2021/12/28 13:39:59;;;;;;;4.07;3.73;;;;;;;;;;5094765;28;20872;-72
2021/12/28 13:42:25;;;;;;;1.23;1.23;;;;;;;;;;5094688;28;20408;-72
2021/12/28 13:44:51;;;;;;;2.13;1.00;;;;;;;;;;5094555;28;20768;-72
2021/12/28 13:47:19;;;;;;;0.60;0.60;;;;;;;;;;5094089;28;20470;-72
2021/12/28 13:49:59;;;;;;;2.93;2.93;;;;;;;;;;5093897;28;21031;-73
2021/12/28 13:52:25;;;;;;;3.30;3.10;;;;;;;;;;5109947;28;20445;-72
2021/12/28 13:54:51;;;;;;;4.10;1.47;;;;;;;;;;5093930;28;20495;-72
2021/12/28 13:57:19;;;;;;;1.00;1.00;;;;;;;;;;5094080;28;20881;-72
2021/12/28 13:59:45;;;;;;;1.33;1.33;;;;;;;;;;5094342;28;20550;-73
2021/12/28 14:02:13;;;;;;;1.83;1.60;;;;;;;;;;5109474;28;20445;-73
2021/12/28 14:04:39;;;;;;;0.33;0.33;;;;;;;;;;5093907;28;20427;-72
2021/12/28 14:07:05;;;;;;;0.50;0.50;;;;;;;;;;5094145;28;20404;-72
2021/12/28 14:12:34;;;;;;;0.70;0.70;;;;;;;;;;5093820;28;20458;-72
2021/12/28 14:15:00;;;;;;;0.80;0.80;;;;;;;;;;5093921;28;20408;-71
2021/12/28 14:17:28;;;;;;;0.70;0.70;;;;;;;;;;5093621;28;20896;-72
2021/12/28 14:19:56;;;;;;;1.03;0.77;;;;;;;;;;5094180;28;20959;-72
2021/12/28 14:22:23;;;;;;;0.50;0.50;;;;;;;;;;5093580;28;20413;-71
2021/12/28 14:24:51;;;;;;;2.43;2.27;;;;;;;;;;5094020;28;20431;-71
2021/12/28 14:27:34;;;;;;;3.83;1.33;;;;;;;;;;5094093;28;20416;-71
2021/12/28 14:30:03;;;;;;;3.13;1.50;;;;;;;;;;5092896;28;20472;-72
2021/12/28 14:32:36;;;;;;;5.20;1.20;;;;;;;;;;5093459;28;20408;-73
2021/12/28 14:35:07;;;;;;;1.90;0.93;;;;;;;;;;5109073;28;20405;-72
2021/12/28 14:37:35;;;;;;;0.83;0.83;;;;;;;;;;5093910;28;20480;-72
2021/12/28 14:40:11;;;;;;;1.90;0.80;;;;;;;;;;5093663;28;20405;-73
2021/12/28 14:42:37;;;;;;;1.33;1.33;;;;;;;;;;5093695;28;20912;-73
2021/12/28 14:45:08;;;;;;;1.73;1.00;;;;;;;;;;5093511;28;20409;-72
2021/12/28 14:47:35;;;;;;;3.43;1.17;;;;;;;;;;5093269;28;20420;-74
2021/12/28 14:50:08;;;;;;;5.30;1.10;;;;;;;;;;5093303;28;20475;-71
2021/12/28 14:52:35;;;;;;;2.70;1.10;;;;;;;;;;5093810;28;20397;-72
2021/12/28 14:55:06;;;;;;;1.90;1.13;;;;;;;;;;5093005;28;20472;-72
2021/12/28 14:57:38;;;;;;;2.03;1.90;;;;;;;;;;5093165;28;20424;-73
2021/12/28 15:00:09;;;;;;;5.60;4.00;;;;;;;;;;5093250;28;20455;-72
2021/12/28 15:02:36;;;;;;;4.33;3.90;;;;;;;;;;5093253;28;20411;-71
2021/12/28 15:05:04;;;;;;;37.73;22.03;;;;;;;;;;5093033;28;20400;-72
2021/12/28 15:07:31;;;;;;;74.47;36.83;;;;;;;;;;5093083;28;20401;-73
2021/12/28 15:09:58;;;;;;;7.53;6.00;;;;;;;;;;5093116;28;20472;-74
2021/12/28 15:12:34;;;;;;;16.65;9.18;;;;;;;;;;5092904;28;20405;-71